sensor_id;sensor_type;location;lat;lon;timestamp;pressure;altitude;pressure_sealevel;temperature;humidity
31239;BME280;17871;31.584;74.450;2023-08-01T07:43:04;97158.47;;;29.02;100.00
31239;BME280;17871;31.584;74.450;2023-08-01T07:46:00;97154.31;;;28.99;100.00
31239;BME280;17871;31.584;74.450;2023-08-01T07:48:52;97149.47;;;28.95;100.00
31239;BME280;17871;31.584;74.450;2023-08-01T07:51:45;97176.13;;;28.80;98.10
31239;BME280;17871;31.584;74.450;2023-08-01T07:54:36;97176.31;;;28.98;100.00
31239;BME280;17871;31.584;74.450;2023-08-01T07:57:29;97205.25;;;28.98;100.00
31239;BME280;17871;31.584;74.450;2023-08-01T08:00:21;97228.56;;;29.33;100.00
31239;BME280;17871;31.584;74.450;2023-08-01T08:03:14;97254.84;;;29.03;100.00
31239;BME280;17871;31.584;74.450;2023-08-01T08:06:38;97313.63;;;28.92;100.00
31239;BME280;17871;31.584;74.450;2023-08-01T08:13:52;97253.91;;;28.42;100.00
31239;BME280;17871;31.584;74.450;2023-08-01T08:16:44;97299.66;;;28.39;100.00
31239;BME280;17871;31.584;74.450;2023-08-01T08:19:44;97298.19;;;28.46;100.00
31239;BME280;17871;31.584;74.450;2023-08-01T08:22:55;97303.25;;;28.38;100.00
31239;BME280;17871;31.584;74.450;2023-08-01T08:25:46;97287.59;;;28.37;100.00
31239;BME280;17871;31.584;74.450;2023-08-01T08:28:42;97276.22;;;28.47;100.00
31239;BME280;17871;31.584;74.450;2023-08-01T08:31:33;97261.91;;;28.40;100.00
31239;BME280;17871;31.584;74.450;2023-08-01T08:34:26;97241.69;;;28.20;100.00
31239;BME280;17871;31.584;74.450;2023-08-01T08:37:18;97235.16;;;28.03;100.00
31239;BME280;17871;31.584;74.450;2023-08-01T08:40:15;97249.91;;;27.83;100.00
31239;BME280;17871;31.584;74.450;2023-08-01T08:43:08;97257.53;;;27.87;100.00
31239;BME280;17871;31.584;74.450;2023-08-01T08:46:02;97228.00;;;28.05;100.00
31239;BME280;17871;31.584;74.450;2023-08-01T08:48:58;97209.88;;;28.02;100.00
31239;BME280;17871;31.584;74.450;2023-08-01T08:51:51;97210.66;;;28.14;100.00
31239;BME280;17871;31.584;74.450;2023-08-01T08:54:43;97200.38;;;28.22;100.00
31239;BME280;17871;31.584;74.450;2023-08-01T08:57:36;97168.13;;;28.20;100.00
31239;BME280;17871;31.584;74.450;2023-08-01T09:00:29;97144.31;;;28.42;100.00
31239;BME280;17871;31.584;74.450;2023-08-01T09:03:23;97139.44;;;28.58;100.00
31239;BME280;17871;31.584;74.450;2023-08-01T09:06:23;97143.84;;;28.78;100.00
31239;BME280;17871;31.584;74.450;2023-08-01T09:09:19;97109.13;;;28.84;100.00
31239;BME280;17871;31.584;74.450;2023-08-01T09:12:49;97105.16;;;29.00;100.00
31239;BME280;17871;31.584;74.450;2023-08-01T09:15:42;97094.41;;;29.22;100.00
31239;BME280;17871;31.584;74.450;2023-08-01T09:18:57;97082.28;;;29.50;100.00
31239;BME280;17871;31.584;74.450;2023-08-01T09:21:50;97079.75;;;29.48;100.00
31239;BME280;17871;31.584;74.450;2023-08-01T09:25:07;97099.19;;;29.66;100.00
31239;BME280;17871;31.584;74.450;2023-08-01T09:28:01;97098.06;;;29.59;100.00
31239;BME280;17871;31.584;74.450;2023-08-01T09:31:01;97097.09;;;29.79;100.00
31239;BME280;17871;31.584;74.450;2023-08-01T09:34:00;97097.50;;;30.04;100.00
31239;BME280;17871;31.584;74.450;2023-08-01T09:36:58;97084.56;;;30.29;100.00
31239;BME280;17871;31.584;74.450;2023-08-01T09:44:10;97083.81;;;30.47;100.00
31239;BME280;17871;31.584;74.450;2023-08-01T09:51:23;97081.06;;;30.48;100.00
31239;BME280;17871;31.584;74.450;2023-08-01T09:54:16;97069.13;;;30.34;100.00
31239;BME280;17871;31.584;74.450;2023-08-01T09:57:31;97064.81;;;30.53;100.00
31239;BME280;17871;31.584;74.450;2023-08-01T10:01:33;97064.19;;;30.96;100.00
31239;BME280;17871;31.584;74.450;2023-08-01T10:05:21;97057.50;;;31.19;100.00
31239;BME280;17871;31.584;74.450;2023-08-01T10:08:18;97052.16;;;31.46;100.00
31239;BME280;17871;31.584;74.450;2023-08-01T10:11:14;97049.63;;;31.54;100.00
31239;BME280;17871;31.584;74.450;2023-08-01T10:14:07;97052.63;;;31.59;100.00
31239;BME280;17871;31.584;74.450;2023-08-01T10:17:00;97041.44;;;31.65;100.00
31239;BME280;17871;31.584;74.450;2023-08-01T10:19:55;97048.84;;;31.79;100.00
31239;BME280;17871;31.584;74.450;2023-08-01T10:23:08;97050.94;;;31.94;100.00
31239;BME280;17871;31.584;74.450;2023-08-01T10:26:35;97044.28;;;31.89;100.00
31239;BME280;17871;31.584;74.450;2023-08-01T10:30:25;97032.25;;;31.95;100.00
31239;BME280;17871;31.584;74.450;2023-08-01T10:53:20;97009.91;;;32.41;99.48
31239;BME280;17871;31.584;74.450;2023-08-01T10:56:19;97002.25;;;32.64;100.00
31239;BME280;17871;31.584;74.450;2023-08-01T11:18:10;96979.72;;;33.02;98.23
31239;BME280;17871;31.584;74.450;2023-08-01T11:32:03;96970.47;;;33.30;100.00
31239;BME280;17871;31.584;74.450;2023-08-01T11:35:56;96986.03;;;33.33;100.00
31239;BME280;17871;31.584;74.450;2023-08-01T11:39:24;96976.78;;;33.29;100.00
31239;BME280;17871;31.584;74.450;2023-08-01T11:42:31;96974.47;;;33.34;100.00
31239;BME280;17871;31.584;74.450;2023-08-01T11:45:56;96962.22;;;33.49;100.00
31239;BME280;17871;31.584;74.450;2023-08-01T11:49:06;96962.88;;;33.43;100.00
31239;BME280;17871;31.584;74.450;2023-08-01T11:52:23;96954.09;;;33.51;100.00
31239;BME280;17871;31.584;74.450;2023-08-01T11:59:11;96957.75;;;33.42;100.00
31239;BME280;17871;31.584;74.450;2023-08-01T12:02:43;96950.63;;;33.42;100.00
31239;BME280;17871;31.584;74.450;2023-08-01T12:05:39;96946.97;;;33.51;100.00
31239;BME280;17871;31.584;74.450;2023-08-01T12:08:51;96944.31;;;33.43;100.00
31239;BME280;17871;31.584;74.450;2023-08-01T12:11:46;96943.50;;;33.51;100.00
31239;BME280;17871;31.584;74.450;2023-08-01T12:15:18;96936.53;;;33.66;100.00
31239;BME280;17871;31.584;74.450;2023-08-01T12:19:31;96926.28;;;33.71;100.00
31239;BME280;17871;31.584;74.450;2023-08-01T14:10:16;96946.75;;;32.38;100.00
31239;BME280;17871;31.584;74.450;2023-08-01T14:13:36;96948.88;;;32.26;100.00
31239;BME280;17871;31.584;74.450;2023-08-01T14:16:55;96954.34;;;32.33;100.00
31239;BME280;17871;31.584;74.450;2023-08-01T14:20:26;96949.06;;;32.41;100.00
31239;BME280;17871;31.584;74.450;2023-08-01T14:24:27;96943.97;;;32.48;100.00
31239;BME280;17871;31.584;74.450;2023-08-01T14:27:58;96947.44;;;32.40;100.00
31239;BME280;17871;31.584;74.450;2023-08-01T14:31:16;96957.84;;;32.33;100.00
31239;BME280;17871;31.584;74.450;2023-08-01T14:34:45;96954.03;;;32.44;100.00
31239;BME280;17871;31.584;74.450;2023-08-01T14:38:13;96959.84;;;32.39;100.00
31239;BME280;17871;31.584;74.450;2023-08-01T14:41:27;96963.13;;;32.33;100.00
31239;BME280;17871;31.584;74.450;2023-08-01T14:44:37;96964.09;;;32.32;100.00
31239;BME280;17871;31.584;74.450;2023-08-01T14:47:51;96953.38;;;32.42;100.00
31239;BME280;17871;31.584;74.450;2023-08-01T14:50:23;96957.31;;;32.30;100.00
31239;BME280;17871;31.584;74.450;2023-08-01T14:52:56;96961.09;;;32.27;100.00
31239;BME280;17871;31.584;74.450;2023-08-01T14:55:27;96965.41;;;32.28;100.00
31239;BME280;17871;31.584;74.450;2023-08-01T14:58:01;96963.72;;;32.27;100.00
31239;BME280;17871;31.584;74.450;2023-08-01T15:00:36;96964.25;;;32.31;100.00
31239;BME280;17871;31.584;74.450;2023-08-01T15:03:08;96970.78;;;32.11;100.00
31239;BME280;17871;31.584;74.450;2023-08-01T15:05:39;96969.66;;;32.21;100.00
31239;BME280;17871;31.584;74.450;2023-08-01T15:08:12;96975.97;;;32.28;100.00
31239;BME280;17871;31.584;74.450;2023-08-01T15:10:46;96980.41;;;32.20;100.00
31239;BME280;17871;31.584;74.450;2023-08-01T15:13:17;96980.50;;;32.44;100.00
31239;BME280;17871;31.584;74.450;2023-08-01T15:15:48;96989.19;;;32.20;100.00
31239;BME280;17871;31.584;74.450;2023-08-01T15:18:23;96989.78;;;32.14;100.00
31239;BME280;17871;31.584;74.450;2023-08-01T15:20:54;96997.38;;;32.09;100.00
31239;BME280;17871;31.584;74.450;2023-08-01T15:23:25;97000.53;;;32.13;100.00
31239;BME280;17871;31.584;74.450;2023-08-01T15:26:06;97003.19;;;32.21;100.00
31239;BME280;17871;31.584;74.450;2023-08-01T15:28:55;97003.16;;;32.13;100.00
31239;BME280;17871;31.584;74.450;2023-08-01T15:32:23;97008.69;;;32.27;100.00
31239;BME280;17871;31.584;74.450;2023-08-01T15:35:22;97007.88;;;32.27;100.00
31239;BME280;17871;31.584;74.450;2023-08-01T15:38:34;97003.25;;;32.29;100.00
31239;BME280;17871;31.584;74.450;2023-08-01T15:41:16;97006.97;;;32.10;100.00
31239;BME280;17871;31.584;74.450;2023-08-01T15:43:47;97007.41;;;32.06;100.00
31239;BME280;17871;31.584;74.450;2023-08-01T15:46:22;97016.00;;;32.08;100.00
31239;BME280;17871;31.584;74.450;2023-08-01T15:49:05;97021.81;;;32.11;100.00
31239;BME280;17871;31.584;74.450;2023-08-01T15:51:56;97020.38;;;32.17;100.00
31239;BME280;17871;31.584;74.450;2023-08-01T15:54:48;97018.66;;;32.08;100.00
31239;BME280;17871;31.584;74.450;2023-08-01T15:58:06;97019.66;;;32.07;100.00
31239;BME280;17871;31.584;74.450;2023-08-01T16:00:45;97026.44;;;31.92;100.00
31239;BME280;17871;31.584;74.450;2023-08-01T16:03:43;97031.50;;;32.03;100.00
31239;BME280;17871;31.584;74.450;2023-08-01T16:19:43;97041.22;;;31.76;100.00
31239;BME280;17871;31.584;74.450;2023-08-01T16:22:14;97037.59;;;31.77;100.00
31239;BME280;17871;31.584;74.450;2023-08-01T16:24:46;97040.84;;;31.71;100.00
31239;BME280;17871;31.584;74.450;2023-08-01T16:27:17;97044.31;;;31.72;100.00
31239;BME280;17871;31.584;74.450;2023-08-01T16:29:48;97044.19;;;31.73;100.00
31239;BME280;17871;31.584;74.450;2023-08-01T16:32:19;97037.00;;;31.66;100.00
31239;BME280;17871;31.584;74.450;2023-08-01T16:34:50;97038.88;;;31.73;100.00
31239;BME280;17871;31.584;74.450;2023-08-01T16:37:23;97044.19;;;31.73;100.00
31239;BME280;17871;31.584;74.450;2023-08-01T16:39:55;97042.59;;;31.80;100.00
31239;BME280;17871;31.584;74.450;2023-08-01T16:42:26;97052.16;;;31.81;100.00
31239;BME280;17871;31.584;74.450;2023-08-01T16:44:59;97050.13;;;31.75;100.00
31239;BME280;17871;31.584;74.450;2023-08-01T16:47:31;97054.13;;;31.79;100.00
31239;BME280;17871;31.584;74.450;2023-08-01T16:50:18;97051.47;;;31.79;100.00
31239;BME280;17871;31.584;74.450;2023-08-01T16:52:50;97045.97;;;31.73;100.00
31239;BME280;17871;31.584;74.450;2023-08-01T16:55:21;97046.50;;;31.76;100.00
31239;BME280;17871;31.584;74.450;2023-08-01T16:57:52;97050.13;;;31.75;100.00
31239;BME280;17871;31.584;74.450;2023-08-01T17:00:45;97052.22;;;31.89;100.00
31239;BME280;17871;31.584;74.450;2023-08-01T17:04:15;97047.34;;;31.77;100.00
31239;BME280;17871;31.584;74.450;2023-08-01T17:07:22;97048.84;;;31.79;100.00
31239;BME280;17871;31.584;74.450;2023-08-01T17:09:56;97054.50;;;31.84;100.00
31239;BME280;17871;31.584;74.450;2023-08-01T17:12:28;97049.81;;;31.78;100.00
31239;BME280;17871;31.584;74.450;2023-08-01T17:15:00;97053.28;;;31.79;100.00
31239;BME280;17871;31.584;74.450;2023-08-01T17:17:31;97048.84;;;31.79;100.00
31239;BME280;17871;31.584;74.450;2023-08-01T17:20:04;97055.78;;;31.80;100.00
31239;BME280;17871;31.584;74.450;2023-08-01T17:22:35;97052.75;;;31.75;100.00
31239;BME280;17871;31.584;74.450;2023-08-01T17:25:05;97049.47;;;31.73;100.00
31239;BME280;17871;31.584;74.450;2023-08-01T17:27:36;97050.13;;;31.75;100.00
31239;BME280;17871;31.584;74.450;2023-08-01T17:30:09;97051.94;;;31.75;100.00
31239;BME280;17871;31.584;74.450;2023-08-01T17:32:40;97052.09;;;31.73;100.00
31239;BME280;17871;31.584;74.450;2023-08-01T17:35:11;97047.78;;;31.72;100.00
31239;BME280;17871;31.584;74.450;2023-08-01T17:37:41;97052.56;;;31.69;100.00
31239;BME280;17871;31.584;74.450;2023-08-01T17:40:12;97053.38;;;31.69;100.00
31239;BME280;17871;31.584;74.450;2023-08-01T17:42:43;97051.06;;;31.66;100.00
31239;BME280;17871;31.584;74.450;2023-08-01T17:45:14;97051.72;;;31.68;100.00
31239;BME280;17871;31.584;74.450;2023-08-01T17:47:44;97054.34;;;31.68;100.00
31239;BME280;17871;31.584;74.450;2023-08-01T17:50:15;97051.41;;;31.71;100.00
31239;BME280;17871;31.584;74.450;2023-08-01T17:52:46;97053.38;;;31.69;100.00
31239;BME280;17871;31.584;74.450;2023-08-01T17:55:17;97058.97;;;31.66;100.00
31239;BME280;17871;31.584;74.450;2023-08-01T17:57:48;97059.28;;;31.63;100.00
31239;BME280;17871;31.584;74.450;2023-08-01T18:00:18;97055.66;;;31.64;100.00
31239;BME280;17871;31.584;74.450;2023-08-01T18:02:49;97054.97;;;31.62;100.00
31239;BME280;17871;31.584;74.450;2023-08-01T18:05:20;97058.97;;;31.66;100.00
31239;BME280;17871;31.584;74.450;2023-08-01T18:07:51;97057.00;;;31.68;100.00
31239;BME280;17871;31.584;74.450;2023-08-01T18:10:22;97055.34;;;31.67;100.00
31239;BME280;17871;31.584;74.450;2023-08-01T18:12:56;97056.03;;;31.69;100.00
31239;BME280;17871;31.584;74.450;2023-08-01T18:15:27;97051.13;;;31.74;100.00
31239;BME280;17871;31.584;74.450;2023-08-01T18:17:57;97060.88;;;31.74;100.00
31239;BME280;17871;31.584;74.450;2023-08-01T18:20:28;97054.22;;;31.70;100.00
31239;BME280;17871;31.584;74.450;2023-08-01T18:22:59;97057.53;;;31.72;100.00
31239;BME280;17871;31.584;74.450;2023-08-01T18:25:35;97058.56;;;31.79;100.00
31239;BME280;17871;31.584;74.450;2023-08-01T18:28:05;97049.06;;;31.68;100.00
31239;BME280;17871;31.584;74.450;2023-08-01T18:30:36;97046.44;;;31.68;100.00
31239;BME280;17871;31.584;74.450;2023-08-01T18:33:08;97050.06;;;31.67;100.00
31239;BME280;17871;31.584;74.450;2023-08-01T18:35:45;97042.91;;;31.77;100.00
31239;BME280;17871;31.584;74.450;2023-08-01T18:38:16;97040.16;;;31.69;100.00
31239;BME280;17871;31.584;74.450;2023-08-01T18:40:47;97042.81;;;31.69;100.00
31239;BME280;17871;31.584;74.450;2023-08-01T18:43:17;97050.75;;;31.69;100.00
31239;BME280;17871;31.584;74.450;2023-08-01T18:45:54;97049.69;;;31.80;100.00
31239;BME280;17871;31.584;74.450;2023-08-01T18:48:25;97044.78;;;31.67;100.00
31239;BME280;17871;31.584;74.450;2023-08-01T18:50:56;97041.97;;;31.69;100.00
31239;BME280;17871;31.584;74.450;2023-08-01T18:53:29;97049.25;;;31.67;100.00
31239;BME280;17871;31.584;74.450;2023-08-01T18:56:07;97049.81;;;31.78;100.00
31239;BME280;17871;31.584;74.450;2023-08-01T18:58:41;97048.84;;;31.62;100.00
31239;BME280;17871;31.584;74.450;2023-08-01T19:04:21;97050.22;;;31.66;100.00
31239;BME280;17871;31.584;74.450;2023-08-01T19:06:52;97055.66;;;31.64;100.00
31239;BME280;17871;31.584;74.450;2023-08-01T19:09:23;97051.19;;;31.65;100.00
31239;BME280;17871;31.584;74.450;2023-08-01T19:11:54;97047.03;;;31.62;100.00
31239;BME280;17871;31.584;74.450;2023-08-01T19:14:25;97046.69;;;31.57;100.00
31239;BME280;17871;31.584;74.450;2023-08-01T19:16:59;97039.28;;;31.61;100.00
31239;BME280;17871;31.584;74.450;2023-08-01T19:19:30;97040.56;;;31.57;100.00
31239;BME280;17871;31.584;74.450;2023-08-01T19:22:01;97040.94;;;31.62;100.00
31239;BME280;17871;31.584;74.450;2023-08-01T19:24:31;97036.47;;;31.62;100.00
31239;BME280;17871;31.584;74.450;2023-08-01T19:27:03;97039.81;;;31.64;100.00
31239;BME280;17871;31.584;74.450;2023-08-01T19:29:34;97036.78;;;31.59;100.00
31239;BME280;17871;31.584;74.450;2023-08-01T19:32:05;97034.16;;;31.59;100.00
31239;BME280;17871;31.584;74.450;2023-08-01T19:34:36;97030.66;;;31.59;100.00
31239;BME280;17871;31.584;74.450;2023-08-01T19:37:07;97026.69;;;31.55;100.00
31239;BME280;17871;31.584;74.450;2023-08-01T19:39:41;97029.69;;;31.60;100.00
31239;BME280;17871;31.584;74.450;2023-08-01T19:42:18;97040.13;;;31.61;100.00
31239;BME280;17871;31.584;74.450;2023-08-01T19:44:54;97035.50;;;31.63;100.00
31239;BME280;17871;31.584;74.450;2023-08-01T19:47:42;97039.28;;;31.61;100.00
31239;BME280;17871;31.584;74.450;2023-08-01T19:50:15;97042.06;;;31.59;100.00
31239;BME280;17871;31.584;74.450;2023-08-01T19:52:49;97029.25;;;31.64;100.00
31239;BME280;17871;31.584;74.450;2023-08-01T19:55:27;97036.78;;;31.59;100.00
31239;BME280;17871;31.584;74.450;2023-08-01T19:58:04;97038.97;;;31.64;100.00
31239;BME280;17871;31.584;74.450;2023-08-01T20:00:38;97040.13;;;31.61;100.00
31239;BME280;17871;31.584;74.450;2023-08-01T20:03:17;97040.34;;;31.68;100.00
31239;BME280;17871;31.584;74.450;2023-08-01T20:05:57;97037.53;;;31.69;100.00
31239;BME280;17871;31.584;74.450;2023-08-01T20:08:38;97032.66;;;31.57;100.00
31239;BME280;17871;31.584;74.450;2023-08-01T20:11:09;97031.50;;;31.59;100.00
31239;BME280;17871;31.584;74.450;2023-08-01T20:13:41;97029.03;;;31.58;100.00
31239;BME280;17871;31.584;74.450;2023-08-01T20:16:13;97034.31;;;31.58;100.00
31239;BME280;17871;31.584;74.450;2023-08-01T20:18:46;97029.56;;;31.61;100.00
31239;BME280;17871;31.584;74.450;2023-08-01T20:21:17;97030.84;;;31.57;100.00
31239;BME280;17871;31.584;74.450;2023-08-01T20:23:53;97038.59;;;31.59;100.00
31239;BME280;17871;31.584;74.450;2023-08-01T20:26:24;97029.81;;;31.76;100.00
31239;BME280;17871;31.584;74.450;2023-08-01T20:28:56;97031.50;;;31.59;100.00
31239;BME280;17871;31.584;74.450;2023-08-01T20:31:29;97033.16;;;31.60;100.00
31239;BME280;17871;31.584;74.450;2023-08-01T20:34:07;97037.94;;;31.57;100.00
31239;BME280;17871;31.584;74.450;2023-08-01T20:36:39;97032.78;;;31.55;100.00
31239;BME280;17871;31.584;74.450;2023-08-01T20:39:13;97021.78;;;31.60;100.00
31239;BME280;17871;31.584;74.450;2023-08-01T20:41:46;97020.94;;;31.59;100.00
31239;BME280;17871;31.584;74.450;2023-08-01T20:44:21;97020.94;;;31.59;100.00
31239;BME280;17871;31.584;74.450;2023-08-01T20:46:53;97022.91;;;31.57;100.00
31239;BME280;17871;31.584;74.450;2023-08-01T20:49:27;97023.56;;;31.59;100.00
31239;BME280;17871;31.584;74.450;2023-08-01T20:51:58;97020.28;;;31.57;100.00
31239;BME280;17871;31.584;74.450;2023-08-01T20:54:36;97014.19;;;31.65;100.00
31239;BME280;17871;31.584;74.450;2023-08-01T20:57:09;97012.19;;;31.59;100.00
31239;BME280;17871;31.584;74.450;2023-08-01T20:59:47;97005.41;;;31.56;100.00
31239;BME280;17871;31.584;74.450;2023-08-01T21:02:19;97002.09;;;31.54;100.00
31239;BME280;17871;31.584;74.450;2023-08-01T21:04:51;97005.69;;;31.71;100.00
31239;BME280;17871;31.584;74.450;2023-08-01T21:07:26;97005.72;;;31.53;100.00
31239;BME280;17871;31.584;74.450;2023-08-01T21:10:00;97009.31;;;31.52;100.00
31239;BME280;17871;31.584;74.450;2023-08-01T21:12:32;97008.22;;;31.55;100.00
31239;BME280;17871;31.584;74.450;2023-08-01T21:15:09;97008.22;;;31.55;100.00
31239;BME280;17871;31.584;74.450;2023-08-01T21:17:40;97005.03;;;31.51;100.00
31239;BME280;17871;31.584;74.450;2023-08-01T21:20:18;97006.00;;;31.50;100.00
31239;BME280;17871;31.584;74.450;2023-08-01T21:22:51;97000.72;;;31.50;100.00
31239;BME280;17871;31.584;74.450;2023-08-01T21:25:23;96990.44;;;31.47;100.00
31239;BME280;17871;31.584;74.450;2023-08-01T21:27:56;96999.34;;;31.46;100.00
31239;BME280;17871;31.584;74.450;2023-08-01T21:30:29;96992.38;;;31.45;100.00
31239;BME280;17871;31.584;74.450;2023-08-01T21:33:03;96992.69;;;31.42;100.00
31239;BME280;17871;31.584;74.450;2023-08-01T21:35:37;96996.03;;;31.44;100.00
31239;BME280;17871;31.584;74.450;2023-08-01T21:38:13;96991.06;;;31.41;100.00
31239;BME280;17871;31.584;74.450;2023-08-01T21:40:46;96996.34;;;31.41;100.00
31239;BME280;17871;31.584;74.450;2023-08-01T21:43:26;96987.53;;;31.50;100.00
31239;BME280;17871;31.584;74.450;2023-08-01T21:46:01;96984.03;;;31.50;100.00
31239;BME280;17871;31.584;74.450;2023-08-01T21:48:34;96987.41;;;31.42;100.00
31239;BME280;17871;31.584;74.450;2023-08-01T21:51:06;96988.56;;;31.39;100.00
31239;BME280;17871;31.584;74.450;2023-08-01T21:53:42;96982.97;;;31.43;100.00
31239;BME280;17871;31.584;74.450;2023-08-01T21:56:13;96982.28;;;31.58;100.00
31239;BME280;17871;31.584;74.450;2023-08-01T21:58:45;96986.09;;;31.38;100.00
31239;BME280;17871;31.584;74.450;2023-08-01T22:01:16;96980.81;;;31.38;100.00
31239;BME280;17871;31.584;74.450;2023-08-01T22:03:48;96986.41;;;31.35;100.00
31239;BME280;17871;31.584;74.450;2023-08-01T22:06:21;96991.69;;;31.35;100.00
31239;BME280;17871;31.584;74.450;2023-08-01T22:08:55;96989.84;;;31.35;100.00
31239;BME280;17871;31.584;74.450;2023-08-01T22:11:29;96996.97;;;31.35;100.00
31239;BME280;17871;31.584;74.450;2023-08-01T22:14:04;96994.97;;;31.37;100.00
31239;BME280;17871;31.584;74.450;2023-08-01T22:16:37;96994.00;;;31.38;100.00
31239;BME280;17871;31.584;74.450;2023-08-01T22:19:15;96990.97;;;31.33;100.00
31239;BME280;17871;31.584;74.450;2023-08-01T22:21:48;96991.69;;;31.35;100.00
31239;BME280;17871;31.584;74.450;2023-08-01T22:24:23;96985.78;;;31.41;100.00
31239;BME280;17871;31.584;74.450;2023-08-01T22:26:55;96986.41;;;31.35;100.00
31239;BME280;17871;31.584;74.450;2023-08-01T22:29:34;96984.41;;;31.37;100.00
31239;BME280;17871;31.584;74.450;2023-08-01T22:32:09;96983.44;;;31.38;100.00
31239;BME280;17871;31.584;74.450;2023-08-01T22:34:41;96976.41;;;31.29;100.00
31239;BME280;17871;31.584;74.450;2023-08-01T22:37:16;96977.25;;;31.29;100.00
31239;BME280;17871;31.584;74.450;2023-08-01T22:39:48;96978.91;;;31.30;100.00
31239;BME280;17871;31.584;74.450;2023-08-01T22:42:20;96974.25;;;31.24;100.00
31239;BME280;17871;31.584;74.450;2023-08-01T22:44:52;96970.78;;;31.24;100.00
31239;BME280;17871;31.584;74.450;2023-08-01T22:47:24;96975.22;;;31.23;100.00
31239;BME280;17871;31.584;74.450;2023-08-01T22:49:58;96976.06;;;31.24;100.00
31239;BME280;17871;31.584;74.450;2023-08-01T22:52:36;96982.00;;;31.26;100.00
31239;BME280;17871;31.584;74.450;2023-08-01T22:55:10;96969.19;;;31.31;100.00
31239;BME280;17871;31.584;74.450;2023-08-01T22:57:51;96975.09;;;31.25;100.00
31239;BME280;17871;31.584;74.450;2023-08-01T23:00:28;96980.38;;;31.25;100.00
31239;BME280;17871;31.584;74.450;2023-08-01T23:03:00;96987.75;;;31.21;100.00
31239;BME280;17871;31.584;74.450;2023-08-01T23:05:32;96983.31;;;31.22;100.00
31239;BME280;17871;31.584;74.450;2023-08-01T23:08:08;96987.91;;;31.20;100.00
31239;BME280;17871;31.584;74.450;2023-08-01T23:10:44;96984.94;;;31.23;100.00
31239;BME280;17871;31.584;74.450;2023-08-01T23:13:16;96988.88;;;31.19;100.00
31239;BME280;17871;31.584;74.450;2023-08-01T23:15:48;96992.66;;;31.16;100.00
31239;BME280;17871;31.584;74.450;2023-08-01T23:18:21;97000.13;;;31.21;100.00
31239;BME280;17871;31.584;74.450;2023-08-01T23:20:59;96996.22;;;31.25;100.00
31239;BME280;17871;31.584;74.450;2023-08-01T23:23:36;96994.84;;;31.21;100.00
31239;BME280;17871;31.584;74.450;2023-08-01T23:26:10;96999.16;;;31.22;100.00
31239;BME280;17871;31.584;74.450;2023-08-01T23:28:44;97008.25;;;31.27;100.00
31239;BME280;17871;31.584;74.450;2023-08-01T23:31:20;97002.06;;;31.19;100.00
31239;BME280;17871;31.584;74.450;2023-08-01T23:33:51;97010.97;;;31.18;100.00
31239;BME280;17871;31.584;74.450;2023-08-01T23:36:23;97008.66;;;31.15;100.00
31239;BME280;17871;31.584;74.450;2023-08-01T23:38:59;97013.94;;;31.15;100.00
31239;BME280;17871;31.584;74.450;2023-08-01T23:41:31;97011.59;;;31.12;100.00
31239;BME280;17871;31.584;74.450;2023-08-01T23:44:11;97014.53;;;31.09;100.00
31239;BME280;17871;31.584;74.450;2023-08-01T23:46:43;97022.16;;;31.12;100.00
31239;BME280;17871;31.584;74.450;2023-08-01T23:49:14;97025.75;;;31.11;100.00
31239;BME280;17871;31.584;74.450;2023-08-01T23:51:46;97030.88;;;31.12;100.00
31239;BME280;17871;31.584;74.450;2023-08-01T23:54:17;97030.06;;;31.12;100.00
31239;BME280;17871;31.584;74.450;2023-08-01T23:56:49;97027.66;;;31.18;100.00
31239;BME280;17871;31.584;74.450;2023-08-01T23:59:24;97032.09;;;31.18;100.00
